logo
Search for airport 
image banner adimage banner adimage banner ad
image banner ad

NVSC - Sola

Located in Sola, Vanuatu

ICAO - NVSC, IATA - SLH

Data provided by Airmate  

General information

Coordinates: S13°51'20" E167°32'19"
Elevation is 15 feet MSL.
 
View others Airports in Torba

Operational data

Special qualification required
Current time UTC:
Current local time:
Weather
TAF: TAF NVSC 172300Z 1800/1824 13010KT 9999 SCT020 BKN040 OVC110 INTER 1800/1806 9000 SHRA FEW008 BKN015 OVC100
View NOTAMs / SUP AIP / TFR affecting this airport [VIEW]
Communications frequencies: [VIEW]

Runways:

RWY identifierQFULength (ft)Width (ft)SurfaceLDA (ft)
16232998UNK
34232998UNK

Airport contact information

Address: Sola Vanuatu

Satellite view of NVSC